Time;durP1;ratioP1;P1;durP2;ratioP2;P2;SDS_P1;SDS_P2;PMS_P1;PMS_P2;Temp;Humidity;BMP_temperature;BMP_pressure;BME280_temperature;BME280_humidity;BME280_pressure;Samples;Min_cycle;Max_cycle;Signal;HPM_P1;HPM_P2
2022/07/15 00:00:17;;;;;;;5.88;2.80;;;;;;;;;;5027947;28;20201;-73
2022/07/15 00:02:43;;;;;;;8.73;3.38;;;;;;;;;;5027988;28;20179;-73
2022/07/15 00:05:08;;;;;;;6.82;2.63;;;;;;;;;;5019378;28;20185;-75
2022/07/15 00:07:34;;;;;;;6.55;3.70;;;;;;;;;;5023305;28;20195;-74
2022/07/15 00:10:15;;;;;;;10.60;3.97;;;;;;;;;;5036760;28;20729;-73
2022/07/15 00:12:44;;;;;;;5.75;3.13;;;;;;;;;;5020858;28;20205;-74
2022/07/15 00:15:10;;;;;;;9.18;3.28;;;;;;;;;;5037603;28;20881;-74
2022/07/15 00:17:35;;;;;;;9.82;2.92;;;;;;;;;;5011191;28;20202;-74
2022/07/15 00:20:01;;;;;;;6.32;2.28;;;;;;;;;;5030423;28;20665;-74
2022/07/15 00:22:26;;;;;;;7.18;2.47;;;;;;;;;;5039461;28;20734;-74
2022/07/15 00:24:51;;;;;;;9.98;2.70;;;;;;;;;;5032259;28;20186;-74
2022/07/15 00:27:17;;;;;;;7.25;2.53;;;;;;;;;;5039646;28;20709;-74
2022/07/15 00:29:42;;;;;;;4.65;2.47;;;;;;;;;;5020213;28;20180;-74
2022/07/15 00:32:07;;;;;;;6.50;2.38;;;;;;;;;;5030472;28;20561;-74
2022/07/15 00:34:32;;;;;;;7.70;2.50;;;;;;;;;;5013030;28;20188;-73
2022/07/15 00:36:57;;;;;;;5.30;2.40;;;;;;;;;;5027534;28;20581;-74
2022/07/15 00:39:23;;;;;;;6.45;2.33;;;;;;;;;;5027058;28;20205;-74
2022/07/15 00:41:48;;;;;;;5.38;2.38;;;;;;;;;;5029005;28;20181;-74
2022/07/15 00:44:13;;;;;;;5.47;2.67;;;;;;;;;;5030460;28;20189;-74
2022/07/15 00:46:39;;;;;;;8.73;3.00;;;;;;;;;;5028536;28;20667;-73
2022/07/15 00:49:06;;;;;;;5.30;3.00;;;;;;;;;;5029116;28;20198;-73
2022/07/15 00:51:41;;;;;;;6.97;2.30;;;;;;;;;;5028160;28;20252;-72
2022/07/15 00:54:08;;;;;;;7.60;2.50;;;;;;;;;;5022517;28;20521;-73
2022/07/15 00:56:36;;;;;;;5.93;2.45;;;;;;;;;;5024083;28;20185;-73
2022/07/15 00:59:02;;;;;;;11.18;2.70;;;;;;;;;;5030088;28;20193;-73
2022/07/15 01:01:27;;;;;;;7.75;2.50;;;;;;;;;;5028489;28;20194;-73
2022/07/15 01:03:53;;;;;;;5.72;2.72;;;;;;;;;;5028164;28;20649;-73
2022/07/15 01:06:18;;;;;;;9.32;2.67;;;;;;;;;;5025526;28;20289;-74
2022/07/15 01:08:43;;;;;;;7.15;2.75;;;;;;;;;;5014132;28;20202;-73
2022/07/15 01:11:08;;;;;;;5.93;2.63;;;;;;;;;;5028385;28;20170;-73
2022/07/15 01:13:34;;;;;;;9.02;3.30;;;;;;;;;;5030030;28;21132;-75
2022/07/15 01:15:59;;;;;;;5.55;2.22;;;;;;;;;;5040150;28;20181;-74
2022/07/15 01:18:24;;;;;;;6.53;2.70;;;;;;;;;;5035813;28;20206;-74
2022/07/15 01:20:50;;;;;;;6.03;2.60;;;;;;;;;;5036224;28;20182;-73
2022/07/15 01:23:15;;;;;;;5.13;2.20;;;;;;;;;;5033455;28;20182;-74
2022/07/15 01:25:40;;;;;;;8.98;3.08;;;;;;;;;;5026011;28;20214;-73
2022/07/15 01:28:07;;;;;;;4.07;2.55;;;;;;;;;;5025592;28;20289;-74
2022/07/15 01:30:32;;;;;;;5.43;2.80;;;;;;;;;;4994214;28;20695;-74
2022/07/15 01:32:57;;;;;;;7.85;3.28;;;;;;;;;;5029647;28;20190;-73
2022/07/15 01:35:22;;;;;;;9.75;2.90;;;;;;;;;;5031935;28;20178;-74
2022/07/15 01:37:48;;;;;;;7.38;2.83;;;;;;;;;;5036704;28;20218;-74
2022/07/15 01:40:13;;;;;;;6.45;3.08;;;;;;;;;;5037339;28;20181;-74
2022/07/15 01:42:38;;;;;;;5.75;2.72;;;;;;;;;;5018606;28;20999;-73
2022/07/15 01:45:05;;;;;;;12.23;3.03;;;;;;;;;;5032951;28;20663;-73
2022/07/15 01:47:32;;;;;;;5.67;2.60;;;;;;;;;;5022769;28;20305;-73
2022/07/15 01:49:57;;;;;;;9.47;3.40;;;;;;;;;;5035033;28;20174;-74
2022/07/15 01:52:23;;;;;;;8.30;3.13;;;;;;;;;;5032652;28;20185;-72
2022/07/15 01:54:48;;;;;;;4.70;2.83;;;;;;;;;;5037970;28;20186;-73
2022/07/15 01:57:13;;;;;;;5.28;2.35;;;;;;;;;;5038530;28;20186;-73
2022/07/15 01:59:39;;;;;;;6.73;3.13;;;;;;;;;;5018237;28;20624;-73
2022/07/15 02:02:04;;;;;;;7.40;2.80;;;;;;;;;;5037563;28;20179;-73
2022/07/15 02:04:29;;;;;;;6.10;2.67;;;;;;;;;;5023605;28;20182;-74
2022/07/15 02:06:54;;;;;;;5.23;2.73;;;;;;;;;;5030020;28;20309;-74
2022/07/15 02:09:19;;;;;;;9.23;3.00;;;;;;;;;;5040327;28;20200;-73
2022/07/15 02:11:45;;;;;;;7.30;2.63;;;;;;;;;;5030076;28;20426;-73
2022/07/15 02:14:11;;;;;;;4.80;2.57;;;;;;;;;;5009565;28;20278;-73
2022/07/15 02:16:36;;;;;;;6.73;2.67;;;;;;;;;;5035050;28;20750;-73
2022/07/15 02:19:02;;;;;;;6.97;3.17;;;;;;;;;;5035028;28;20208;-74
2022/07/15 02:21:27;;;;;;;4.85;2.15;;;;;;;;;;5011170;28;20183;-73
2022/07/15 02:23:53;;;;;;;7.20;2.60;;;;;;;;;;5023089;28;20183;-73
2022/07/15 02:26:18;;;;;;;5.13;2.13;;;;;;;;;;5016186;28;20684;-73
2022/07/15 02:28:44;;;;;;;4.70;2.80;;;;;;;;;;5033482;28;20198;-73
2022/07/15 02:31:09;;;;;;;5.17;3.10;;;;;;;;;;5038841;28;20262;-73
2022/07/15 02:33:35;;;;;;;4.83;2.40;;;;;;;;;;5031992;28;20186;-73
2022/07/15 02:36:00;;;;;;;5.10;2.27;;;;;;;;;;5031953;28;20261;-74
2022/07/15 02:38:25;;;;;;;6.70;3.23;;;;;;;;;;5030124;28;20210;-73
2022/07/15 02:40:50;;;;;;;7.47;2.53;;;;;;;;;;5031022;28;20174;-73
2022/07/15 02:43:16;;;;;;;7.60;3.07;;;;;;;;;;5032594;28;20629;-73
2022/07/15 02:45:41;;;;;;;5.50;2.40;;;;;;;;;;5029122;28;20202;-73
2022/07/15 02:48:07;;;;;;;5.03;2.50;;;;;;;;;;5033063;28;20205;-73
2022/07/15 02:50:32;;;;;;;6.07;3.10;;;;;;;;;;5032014;28;20265;-73
2022/07/15 02:52:57;;;;;;;11.17;2.93;;;;;;;;;;5014680;28;20214;-73
2022/07/15 02:55:23;;;;;;;6.47;3.07;;;;;;;;;;5030692;28;20182;-73
2022/07/15 02:57:48;;;;;;;4.33;2.60;;;;;;;;;;5030806;28;20293;-73
2022/07/15 03:00:16;;;;;;;5.20;2.17;;;;;;;;;;5031363;28;20277;-72
2022/07/15 03:02:41;;;;;;;8.30;2.60;;;;;;;;;;5028224;28;20494;-73
2022/07/15 03:05:07;;;;;;;10.00;3.23;;;;;;;;;;5032734;28;20260;-73
2022/07/15 03:07:32;;;;;;;6.93;2.67;;;;;;;;;;5026113;28;20221;-73
2022/07/15 03:09:57;;;;;;;6.70;2.57;;;;;;;;;;5029835;28;20182;-73
2022/07/15 03:12:22;;;;;;;6.07;2.50;;;;;;;;;;5030993;28;20653;-73
2022/07/15 03:14:47;;;;;;;10.40;2.67;;;;;;;;;;5028374;28;20259;-73
2022/07/15 03:17:13;;;;;;;8.77;3.57;;;;;;;;;;5038135;28;20243;-72
2022/07/15 03:19:38;;;;;;;6.47;2.70;;;;;;;;;;5041536;28;20181;-72
2022/07/15 03:22:03;;;;;;;6.07;2.30;;;;;;;;;;5031524;28;20182;-72
2022/07/15 03:24:29;;;;;;;5.20;2.40;;;;;;;;;;5032310;28;20705;-72
2022/07/15 03:26:54;;;;;;;5.43;2.33;;;;;;;;;;5038226;28;20209;-72
2022/07/15 03:29:19;;;;;;;5.30;3.03;;;;;;;;;;5030449;28;20202;-73
2022/07/15 03:31:45;;;;;;;5.23;2.63;;;;;;;;;;5011732;28;20640;-72
2022/07/15 03:34:10;;;;;;;8.03;3.10;;;;;;;;;;5031792;28;20567;-73
2022/07/15 03:36:37;;;;;;;5.17;2.20;;;;;;;;;;5033259;28;20183;-73
2022/07/15 03:39:03;;;;;;;10.83;2.23;;;;;;;;;;5018361;28;20305;-73
2022/07/15 03:41:28;;;;;;;7.10;2.30;;;;;;;;;;5035279;28;20208;-73
2022/07/15 03:43:53;;;;;;;4.13;2.00;;;;;;;;;;5034114;28;20247;-73
2022/07/15 03:46:19;;;;;;;5.43;2.23;;;;;;;;;;5016339;28;20640;-73
2022/07/15 03:48:44;;;;;;;8.73;2.80;;;;;;;;;;5029331;28;20186;-73
2022/07/15 03:51:09;;;;;;;5.60;2.07;;;;;;;;;;5034088;28;20663;-73
2022/07/15 03:53:34;;;;;;;4.93;2.20;;;;;;;;;;5031673;28;20190;-73
2022/07/15 03:55:59;;;;;;;3.93;2.17;;;;;;;;;;5025257;28;20204;-73
2022/07/15 03:58:25;;;;;;;5.30;2.27;;;;;;;;;;5029263;28;20684;-72
2022/07/15 04:00:50;;;;;;;4.73;2.23;;;;;;;;;;5020194;28;20272;-73
2022/07/15 04:03:16;;;;;;;6.40;2.50;;;;;;;;;;5023119;28;20276;-72
2022/07/15 04:05:41;;;;;;;7.72;2.83;;;;;;;;;;5030938;28;20285;-72
2022/07/15 04:08:06;;;;;;;9.35;3.97;;;;;;;;;;5024956;28;20213;-73
2022/07/15 04:10:31;;;;;;;11.13;3.17;;;;;;;;;;5005008;28;20185;-72
2022/07/15 04:12:57;;;;;;;4.10;2.53;;;;;;;;;;5024201;28;20592;-73
2022/07/15 04:15:22;;;;;;;5.63;2.45;;;;;;;;;;5019012;28;20186;-73
2022/07/15 04:17:47;;;;;;;5.10;2.00;;;;;;;;;;5029753;28;20198;-73
2022/07/15 04:20:12;;;;;;;3.97;2.00;;;;;;;;;;5031065;28;20186;-73
2022/07/15 04:22:46;;;;;;;6.57;2.67;;;;;;;;;;5025802;28;20574;-73
2022/07/15 04:25:14;;;;;;;6.60;2.35;;;;;;;;;;5010596;28;20255;-73
2022/07/15 04:27:40;;;;;;;6.90;2.27;;;;;;;;;;5026164;28;20205;-72
2022/07/15 04:30:05;;;;;;;5.63;1.95;;;;;;;;;;5032500;28;20246;-73
2022/07/15 04:32:31;;;;;;;6.70;1.85;;;;;;;;;;5030572;28;20182;-73
2022/07/15 04:34:56;;;;;;;4.25;2.17;;;;;;;;;;5014861;28;20269;-72
2022/07/15 04:37:21;;;;;;;4.45;1.83;;;;;;;;;;5031130;28;20285;-72
2022/07/15 04:39:47;;;;;;;3.55;1.52;;;;;;;;;;5037764;28;20226;-72
2022/07/15 04:42:12;;;;;;;8.82;1.98;;;;;;;;;;5034124;28;20190;-72
2022/07/15 04:44:37;;;;;;;6.38;1.67;;;;;;;;;;5012096;28;20178;-72
2022/07/15 04:47:02;;;;;;;4.47;1.63;;;;;;;;;;5029568;28;20722;-72
2022/07/15 04:52:12;;;;;;;4.70;1.33;;;;;;;;;;5030526;28;20236;-72
2022/07/15 04:54:37;;;;;;;5.75;1.80;;;;;;;;;;5029438;28;20657;-74
2022/07/15 04:57:04;;;;;;;3.10;1.25;;;;;;;;;;5030656;28;20186;-73
2022/07/15 04:59:29;;;;;;;3.70;1.35;;;;;;;;;;5028376;28;20217;-73
2022/07/15 05:01:54;;;;;;;4.53;1.40;;;;;;;;;;5030837;28;20202;-72
2022/07/15 05:04:19;;;;;;;6.47;1.50;;;;;;;;;;5036414;28;20252;-72
2022/07/15 05:06:44;;;;;;;2.95;1.30;;;;;;;;;;5032529;28;20206;-73
2022/07/15 05:09:10;;;;;;;5.15;1.90;;;;;;;;;;5019461;28;20221;-72
2022/07/15 05:11:35;;;;;;;4.10;1.60;;;;;;;;;;5034171;28;20179;-72
2022/07/15 05:14:00;;;;;;;5.18;2.75;;;;;;;;;;5035364;28;20170;-74
2022/07/15 05:16:25;;;;;;;5.20;1.85;;;;;;;;;;5034228;28;20178;-74
2022/07/15 05:18:51;;;;;;;7.03;1.80;;;;;;;;;;5031927;28;20805;-73
2022/07/15 05:21:16;;;;;;;7.05;2.70;;;;;;;;;;5039228;28;20194;-73
2022/07/15 05:23:41;;;;;;;5.38;1.73;;;;;;;;;;5029249;28;20170;-73
2022/07/15 05:26:07;;;;;;;4.25;1.85;;;;;;;;;;5028317;28;20764;-73
2022/07/15 05:28:32;;;;;;;6.75;1.88;;;;;;;;;;5023340;28;20190;-73
2022/07/15 05:30:57;;;;;;;3.17;1.30;;;;;;;;;;5032561;28;20189;-73
2022/07/15 05:33:22;;;;;;;2.47;1.20;;;;;;;;;;5023092;28;20178;-73
2022/07/15 05:35:48;;;;;;;4.88;1.48;;;;;;;;;;5030507;28;20186;-73
2022/07/15 05:38:13;;;;;;;2.42;1.23;;;;;;;;;;5024724;28;20215;-72
2022/07/15 05:40:38;;;;;;;4.03;2.10;;;;;;;;;;5023822;28;20280;-73
2022/07/15 05:43:04;;;;;;;2.97;1.20;;;;;;;;;;5027941;28;20187;-72
2022/07/15 05:45:29;;;;;;;2.25;1.00;;;;;;;;;;5024298;28;20782;-73
2022/07/15 05:47:54;;;;;;;5.40;1.75;;;;;;;;;;5035097;28;20201;-73
2022/07/15 05:50:20;;;;;;;2.60;0.80;;;;;;;;;;5038911;28;20175;-73
2022/07/15 05:52:45;;;;;;;7.47;2.67;;;;;;;;;;5035471;28;20237;-73
2022/07/15 05:55:10;;;;;;;4.72;1.20;;;;;;;;;;5030518;28;20273;-73
2022/07/15 05:57:36;;;;;;;2.55;1.17;;;;;;;;;;5027092;28;20203;-73
2022/07/15 06:00:02;;;;;;;4.57;1.00;;;;;;;;;;5035291;28;20186;-73
2022/07/15 06:02:28;;;;;;;3.67;1.17;;;;;;;;;;5028293;28;20197;-73
2022/07/15 06:04:53;;;;;;;2.65;1.00;;;;;;;;;;5023163;28;20209;-73
2022/07/15 06:07:19;;;;;;;7.78;1.05;;;;;;;;;;5028964;28;20628;-74
2022/07/15 06:09:46;;;;;;;6.13;1.27;;;;;;;;;;5024408;28;20699;-74
2022/07/15 06:12:11;;;;;;;11.25;2.85;;;;;;;;;;5020665;28;20173;-74
2022/07/15 06:14:36;;;;;;;7.22;1.10;;;;;;;;;;5038408;28;20204;-73
2022/07/15 06:17:01;;;;;;;4.72;0.90;;;;;;;;;;5032395;28;20632;-75
2022/07/15 06:19:27;;;;;;;5.15;1.23;;;;;;;;;;5028627;28;20213;-73
2022/07/15 06:21:52;;;;;;;3.88;1.00;;;;;;;;;;5008703;28;20174;-74
2022/07/15 06:24:17;;;;;;;2.72;0.85;;;;;;;;;;5018069;28;20651;-73
2022/07/15 06:26:42;;;;;;;3.80;1.10;;;;;;;;;;5022668;28;20202;-73
2022/07/15 06:29:08;;;;;;;8.05;1.38;;;;;;;;;;5032870;28;20685;-73
2022/07/15 06:31:33;;;;;;;9.23;1.98;;;;;;;;;;5033681;28;20186;-73
2022/07/15 06:33:59;;;;;;;5.53;0.98;;;;;;;;;;5028525;28;20186;-73
2022/07/15 06:36:24;;;;;;;2.88;1.52;;;;;;;;;;5008539;28;20206;-73
2022/07/15 06:38:49;;;;;;;5.60;1.40;;;;;;;;;;5030324;28;20702;-73
2022/07/15 06:41:15;;;;;;;2.15;0.98;;;;;;;;;;5032128;28;20558;-73
2022/07/15 06:43:42;;;;;;;3.97;0.80;;;;;;;;;;5030602;28;20202;-73
2022/07/15 06:46:08;;;;;;;4.95;0.95;;;;;;;;;;5029669;28;20206;-73
2022/07/15 06:48:33;;;;;;;5.40;1.27;;;;;;;;;;5031115;28;20251;-73
2022/07/15 06:50:58;;;;;;;3.50;0.90;;;;;;;;;;5032946;28;20252;-73
2022/07/15 06:53:25;;;;;;;4.03;1.08;;;;;;;;;;5036547;28;20518;-73
2022/07/15 06:55:50;;;;;;;2.95;0.95;;;;;;;;;;5040187;28;20227;-73
2022/07/15 06:58:17;;;;;;;5.93;2.22;;;;;;;;;;5035769;28;20580;-73
2022/07/15 07:00:42;;;;;;;6.10;1.30;;;;;;;;;;5006767;28;20182;-72
2022/07/15 07:03:07;;;;;;;3.13;1.30;;;;;;;;;;5017664;28;20711;-74
2022/07/15 07:05:32;;;;;;;5.23;1.07;;;;;;;;;;5022009;28;20214;-74
2022/07/15 07:07:58;;;;;;;4.43;0.70;;;;;;;;;;5027355;28;20458;-74
2022/07/15 07:10:23;;;;;;;4.57;1.20;;;;;;;;;;5019924;28;20400;-74
2022/07/15 07:12:49;;;;;;;1.80;0.65;;;;;;;;;;5017720;28;20270;-73
2022/07/15 07:15:15;;;;;;;3.50;0.80;;;;;;;;;;5032826;28;20239;-73
2022/07/15 07:17:40;;;;;;;7.60;1.08;;;;;;;;;;5030327;28;20194;-73
2022/07/15 07:20:06;;;;;;;4.27;1.17;;;;;;;;;;5023091;28;20186;-73
2022/07/15 07:22:31;;;;;;;7.50;1.55;;;;;;;;;;5028768;28;20996;-73
2022/07/15 07:24:59;;;;;;;6.65;1.05;;;;;;;;;;5031955;28;20180;-72
2022/07/15 07:27:24;;;;;;;6.13;1.00;;;;;;;;;;5029428;28;20221;-72
2022/07/15 07:29:49;;;;;;;3.73;0.77;;;;;;;;;;5044271;28;20299;-74
2022/07/15 07:32:14;;;;;;;3.33;0.77;;;;;;;;;;5044378;28;20403;-72
2022/07/15 07:34:40;;;;;;;4.23;1.20;;;;;;;;;;5025753;28;20434;-73
2022/07/15 07:37:05;;;;;;;2.47;0.77;;;;;;;;;;5041574;28;20438;-73
2022/07/15 07:39:30;;;;;;;6.70;1.77;;;;;;;;;;5043772;28;20798;-73
2022/07/15 07:41:55;;;;;;;2.88;1.05;;;;;;;;;;5039894;28;20181;-73
2022/07/15 07:44:20;;;;;;;3.63;1.10;;;;;;;;;;5045753;28;20192;-73
2022/07/15 07:46:46;;;;;;;2.47;0.80;;;;;;;;;;5033771;28;20285;-73
2022/07/15 07:49:12;;;;;;;3.80;1.35;;;;;;;;;;5025946;28;20616;-73
2022/07/15 07:51:38;;;;;;;2.30;0.60;;;;;;;;;;5019734;28;20178;-73
2022/07/15 07:54:03;;;;;;;2.38;1.23;;;;;;;;;;5031741;28;20193;-73
2022/07/15 07:56:28;;;;;;;5.80;1.23;;;;;;;;;;5027101;28;20538;-74
2022/07/15 07:58:53;;;;;;;4.30;1.33;;;;;;;;;;5031361;28;20505;-73
2022/07/15 08:01:18;;;;;;;3.92;0.70;;;;;;;;;;5025165;28;20514;-73
2022/07/15 08:03:45;;;;;;;1.38;0.52;;;;;;;;;;5021122;28;20184;-73
2022/07/15 08:06:10;;;;;;;4.50;0.90;;;;;;;;;;5026100;28;20244;-74
2022/07/15 08:08:37;;;;;;;4.87;0.70;;;;;;;;;;5009438;28;20202;-74
2022/07/15 08:11:02;;;;;;;2.83;0.93;;;;;;;;;;5027283;28;20444;-74
2022/07/15 08:13:28;;;;;;;2.50;0.82;;;;;;;;;;5026369;28;20198;-73
2022/07/15 08:15:55;;;;;;;3.88;1.02;;;;;;;;;;5030036;28;20265;-73
2022/07/15 08:18:21;;;;;;;3.35;0.80;;;;;;;;;;5028747;28;20198;-74
2022/07/15 08:20:46;;;;;;;3.30;0.60;;;;;;;;;;5028221;28;20711;-73
2022/07/15 08:23:11;;;;;;;4.38;0.98;;;;;;;;;;5019322;28;20445;-74
2022/07/15 08:25:37;;;;;;;3.20;0.88;;;;;;;;;;5029011;28;20650;-74
2022/07/15 08:28:03;;;;;;;5.88;1.08;;;;;;;;;;5029092;28;20700;-73
2022/07/15 08:30:29;;;;;;;2.50;0.82;;;;;;;;;;5038338;28;20176;-73
2022/07/15 08:32:54;;;;;;;3.75;1.30;;;;;;;;;;5030959;28;20170;-74
2022/07/15 08:35:20;;;;;;;3.80;0.70;;;;;;;;;;5035944;28;20231;-73
2022/07/15 08:37:45;;;;;;;5.25;1.30;;;;;;;;;;5023123;28;20419;-74
2022/07/15 08:40:10;;;;;;;2.07;0.70;;;;;;;;;;5042994;28;20330;-74
2022/07/15 08:42:39;;;;;;;2.22;0.63;;;;;;;;;;5039057;28;20427;-74
2022/07/15 08:45:04;;;;;;;2.22;0.50;;;;;;;;;;5032288;28;20270;-74
2022/07/15 08:47:31;;;;;;;3.08;1.23;;;;;;;;;;5022129;28;20233;-74
2022/07/15 08:49:56;;;;;;;3.65;0.60;;;;;;;;;;5023866;28;20646;-74
2022/07/15 08:52:22;;;;;;;2.25;0.75;;;;;;;;;;5037126;28;20173;-73
2022/07/15 08:54:48;;;;;;;4.10;0.65;;;;;;;;;;5039340;28;20182;-73
2022/07/15 08:57:14;;;;;;;3.70;0.70;;;;;;;;;;5037480;28;20232;-73
2022/07/15 08:59:39;;;;;;;2.83;0.63;;;;;;;;;;5021468;28;20506;-73
2022/07/15 09:02:04;;;;;;;3.78;0.70;;;;;;;;;;5007909;28;20651;-74
2022/07/15 09:04:29;;;;;;;4.03;0.43;;;;;;;;;;5023319;28;20182;-74
2022/07/15 09:06:55;;;;;;;1.10;0.33;;;;;;;;;;5040221;28;20482;-74
2022/07/15 09:09:27;;;;;;;1.42;0.50;;;;;;;;;;5027965;28;20434;-74
2022/07/15 09:11:57;;;;;;;4.22;0.75;;;;;;;;;;5039591;28;20253;-74
2022/07/15 09:14:24;;;;;;;1.38;0.50;;;;;;;;;;5023699;28;20187;-74
2022/07/15 09:16:49;;;;;;;1.20;0.60;;;;;;;;;;5028876;28;20255;-74
2022/07/15 09:19:14;;;;;;;1.00;0.30;;;;;;;;;;5011544;28;20617;-74
2022/07/15 09:21:42;;;;;;;1.40;0.50;;;;;;;;;;5029531;28;20214;-74
2022/07/15 09:24:19;;;;;;;2.85;0.50;;;;;;;;;;5029626;28;20423;-74
2022/07/15 09:26:45;;;;;;;2.03;0.77;;;;;;;;;;5028172;28;20210;-74
2022/07/15 09:34:58;;;;;;;1.25;0.47;;;;;;;;;;5031308;28;20181;-74
2022/07/15 09:37:23;;;;;;;1.98;0.63;;;;;;;;;;5025820;28;20754;-74
2022/07/15 09:39:55;;;;;;;1.70;0.70;;;;;;;;;;5012023;28;20198;-74
2022/07/15 09:42:21;;;;;;;1.98;0.50;;;;;;;;;;5013344;28;20420;-73
2022/07/15 09:44:46;;;;;;;1.85;0.40;;;;;;;;;;5025638;28;20648;-74
2022/07/15 09:47:19;;;;;;;5.00;0.70;;;;;;;;;;5029569;28;20207;-74
2022/07/15 09:49:45;;;;;;;3.05;0.40;;;;;;;;;;5026801;28;20415;-74
2022/07/15 09:52:13;;;;;;;1.55;0.57;;;;;;;;;;5011841;28;20225;-73
2022/07/15 09:54:47;;;;;;;1.85;0.60;;;;;;;;;;5030618;28;20174;-74
2022/07/15 09:57:15;;;;;;;2.90;0.75;;;;;;;;;;5032320;28;20599;-74
2022/07/15 09:59:40;;;;;;;3.15;0.57;;;;;;;;;;5014990;28;20174;-74
2022/07/15 10:02:06;;;;;;;1.60;0.60;;;;;;;;;;5029392;28;20224;-74
2022/07/15 10:04:31;;;;;;;2.03;0.40;;;;;;;;;;5032562;28;20216;-74
2022/07/15 10:06:57;;;;;;;1.70;0.38;;;;;;;;;;5030851;28;20460;-74
2022/07/15 10:09:23;;;;;;;2.83;0.57;;;;;;;;;;5032445;28;20220;-74
2022/07/15 10:11:50;;;;;;;1.80;0.50;;;;;;;;;;5032640;28;20182;-74
2022/07/15 10:14:22;;;;;;;2.95;0.40;;;;;;;;;;5026004;28;20648;-74
2022/07/15 10:16:59;;;;;;;0.95;0.20;;;;;;;;;;5029647;28;20190;-74
2022/07/15 10:19:37;;;;;;;2.33;0.32;;;;;;;;;;5021843;28;20177;-74
2022/07/15 10:22:19;;;;;;;2.78;0.43;;;;;;;;;;5024732;28;20170;-74
2022/07/15 10:25:03;;;;;;;1.83;0.20;;;;;;;;;;5025382;28;20209;-74
2022/07/15 10:27:45;;;;;;;5.63;0.40;;;;;;;;;;5034166;28;20708;-74
2022/07/15 10:30:10;;;;;;;1.83;0.30;;;;;;;;;;5038281;28;20174;-74
2022/07/15 10:32:59;;;;;;;2.05;0.85;;;;;;;;;;5036564;28;20170;-74
2022/07/15 10:35:44;;;;;;;2.35;0.40;;;;;;;;;;5018092;28;20248;-74
2022/07/15 10:38:28;;;;;;;2.45;0.40;;;;;;;;;;5026193;28;20201;-74
2022/07/15 10:41:10;;;;;;;5.15;0.30;;;;;;;;;;5021975;28;20175;-74
2022/07/15 10:43:44;;;;;;;4.82;0.38;;;;;;;;;;5044920;28;20583;-74
2022/07/15 10:46:16;;;;;;;1.15;0.40;;;;;;;;;;5038572;28;20315;-74
2022/07/15 10:48:41;;;;;;;1.17;0.22;;;;;;;;;;5048261;28;20196;-74
2022/07/15 10:51:06;;;;;;;1.98;0.50;;;;;;;;;;5035112;28;20173;-74
2022/07/15 10:53:32;;;;;;;2.33;0.60;;;;;;;;;;5040662;28;20763;-74
2022/07/15 10:56:17;;;;;;;1.17;0.40;;;;;;;;;;5042617;28;20269;-74
2022/07/15 10:59:02;;;;;;;1.60;0.50;;;;;;;;;;5041027;28;20237;-74
2022/07/15 11:01:27;;;;;;;2.08;0.50;;;;;;;;;;5036616;28;20186;-74
2022/07/15 11:04:11;;;;;;;1.25;0.30;;;;;;;;;;5040743;28;20702;-74
2022/07/15 11:06:55;;;;;;;1.20;0.50;;;;;;;;;;5038613;28;20202;-74
2022/07/15 11:09:40;;;;;;;1.63;0.30;;;;;;;;;;5031640;28;20195;-74
2022/07/15 11:12:05;;;;;;;1.42;0.45;;;;;;;;;;5036733;28;20219;-74
2022/07/15 11:14:50;;;;;;;1.02;0.30;;;;;;;;;;5025369;28;20170;-74
2022/07/15 11:17:36;;;;;;;1.08;0.40;;;;;;;;;;5010662;28;20190;-74
2022/07/15 11:20:08;;;;;;;1.55;0.65;;;;;;;;;;5041051;28;20193;-74
2022/07/15 11:22:33;;;;;;;1.98;0.50;;;;;;;;;;5031466;28;20240;-74
2022/07/15 11:24:58;;;;;;;2.50;0.60;;;;;;;;;;5027420;28;20264;-74
2022/07/15 11:27:25;;;;;;;2.00;0.43;;;;;;;;;;5026317;28;20589;-74
2022/07/15 11:29:51;;;;;;;1.77;0.52;;;;;;;;;;5031004;28;20412;-74
2022/07/15 11:32:17;;;;;;;2.78;0.40;;;;;;;;;;5021819;28;20253;-74
2022/07/15 11:34:44;;;;;;;4.68;0.60;;;;;;;;;;5026330;28;20179;-74
2022/07/15 11:37:18;;;;;;;1.75;0.40;;;;;;;;;;5029668;28;20178;-74
2022/07/15 11:39:43;;;;;;;2.90;0.90;;;;;;;;;;5032662;28;20230;-74
2022/07/15 11:45:01;;;;;;;1.75;0.40;;;;;;;;;;5035641;28;20180;-74
2022/07/15 11:47:26;;;;;;;1.70;0.80;;;;;;;;;;5033300;28;20293;-74
2022/07/15 11:49:57;;;;;;;1.40;0.50;;;;;;;;;;5030714;28;20510;-74
2022/07/15 11:52:24;;;;;;;2.58;0.57;;;;;;;;;;5029223;28;20485;-73
2022/07/15 11:54:49;;;;;;;2.50;0.55;;;;;;;;;;5029190;28;20170;-73
2022/07/15 11:57:14;;;;;;;1.52;0.70;;;;;;;;;;5023306;28;20575;-73
2022/07/15 11:59:40;;;;;;;2.22;0.60;;;;;;;;;;5028657;28;20189;-73
2022/07/15 12:02:05;;;;;;;2.72;0.68;;;;;;;;;;5035792;28;20743;-73
2022/07/15 12:04:30;;;;;;;3.05;0.73;;;;;;;;;;5030634;28;20649;-73
2022/07/15 12:06:56;;;;;;;2.92;0.60;;;;;;;;;;5027391;28;20221;-73
2022/07/15 12:09:21;;;;;;;1.75;0.65;;;;;;;;;;5031436;28;20194;-73
2022/07/15 12:11:46;;;;;;;1.63;0.90;;;;;;;;;;5035514;28;20186;-74
2022/07/15 12:14:19;;;;;;;3.33;0.75;;;;;;;;;;5031534;28;20410;-73
2022/07/15 12:16:49;;;;;;;1.35;0.88;;;;;;;;;;5033618;28;20189;-73
2022/07/15 12:19:16;;;;;;;1.77;0.70;;;;;;;;;;5013473;28;20256;-73
2022/07/15 12:21:42;;;;;;;1.17;0.80;;;;;;;;;;5029429;28;20216;-73
2022/07/15 12:24:10;;;;;;;1.77;0.65;;;;;;;;;;5029737;28;20213;-73
2022/07/15 12:26:38;;;;;;;1.77;0.73;;;;;;;;;;5027799;28;20686;-74
2022/07/15 12:29:04;;;;;;;2.80;0.70;;;;;;;;;;5012385;28;20198;-73
2022/07/15 12:31:31;;;;;;;2.42;1.00;;;;;;;;;;5030985;28;20175;-73
2022/07/15 12:33:56;;;;;;;1.45;0.80;;;;;;;;;;5022818;28;20181;-74
2022/07/15 12:36:25;;;;;;;1.73;0.75;;;;;;;;;;5008215;28;20182;-73
2022/07/15 12:39:07;;;;;;;3.50;0.90;;;;;;;;;;5036262;28;20215;-73
2022/07/15 12:41:33;;;;;;;3.63;0.82;;;;;;;;;;5035135;28;20185;-74
2022/07/15 12:44:01;;;;;;;2.42;0.90;;;;;;;;;;5021224;28;20178;-73
2022/07/15 12:46:45;;;;;;;1.70;0.50;;;;;;;;;;5016826;28;20201;-73
2022/07/15 12:49:10;;;;;;;3.50;0.60;;;;;;;;;;5015339;28;20191;-72
2022/07/15 12:51:36;;;;;;;2.70;1.08;;;;;;;;;;5039647;28;20193;-73
2022/07/15 12:54:05;;;;;;;2.00;0.70;;;;;;;;;;5040815;28;20200;-73
2022/07/15 12:56:30;;;;;;;1.58;0.60;;;;;;;;;;5038110;28;20170;-73
2022/07/15 12:58:55;;;;;;;1.70;0.70;;;;;;;;;;5046599;28;20219;-74
2022/07/15 13:01:21;;;;;;;1.73;0.90;;;;;;;;;;5030979;28;20182;-73
2022/07/15 13:03:46;;;;;;;2.45;1.00;;;;;;;;;;5028832;28;20483;-74
2022/07/15 13:06:11;;;;;;;1.77;1.10;;;;;;;;;;5037381;28;20194;-73
2022/07/15 13:08:38;;;;;;;5.10;1.13;;;;;;;;;;5028765;28;20252;-72
2022/07/15 13:11:04;;;;;;;2.65;0.90;;;;;;;;;;5026136;28;20173;-72
2022/07/15 13:13:32;;;;;;;1.83;1.08;;;;;;;;;;5024811;28;20171;-73
2022/07/15 13:15:58;;;;;;;2.53;1.20;;;;;;;;;;5034278;28;20198;-72
2022/07/15 13:18:25;;;;;;;2.58;1.45;;;;;;;;;;5022778;28;20230;-72
2022/07/15 13:20:51;;;;;;;3.10;1.65;;;;;;;;;;5027169;28;20178;-73
2022/07/15 13:23:16;;;;;;;1.75;0.80;;;;;;;;;;5012999;28;20229;-73
2022/07/15 13:25:42;;;;;;;3.03;1.10;;;;;;;;;;5029992;28;20185;-73
2022/07/15 13:28:07;;;;;;;1.38;0.80;;;;;;;;;;5011953;28;20202;-73
2022/07/15 13:30:33;;;;;;;4.97;1.05;;;;;;;;;;5025126;28;20632;-73
2022/07/15 13:32:59;;;;;;;2.00;1.08;;;;;;;;;;5016449;28;20182;-73
2022/07/15 13:35:24;;;;;;;1.70;0.88;;;;;;;;;;5031789;28;20671;-73
2022/07/15 13:37:49;;;;;;;3.75;1.00;;;;;;;;;;5026980;28;20234;-73
2022/07/15 13:40:15;;;;;;;5.17;1.57;;;;;;;;;;5028424;28;20185;-73
2022/07/15 13:42:41;;;;;;;2.17;1.00;;;;;;;;;;5028696;28;20431;-73
2022/07/15 13:45:07;;;;;;;3.22;1.10;;;;;;;;;;5025435;28;20182;-73
2022/07/15 13:47:32;;;;;;;2.60;0.95;;;;;;;;;;5015990;28;20286;-72
2022/07/15 13:52:46;;;;;;;3.53;1.30;;;;;;;;;;5028999;28;20224;-73
2022/07/15 13:55:11;;;;;;;4.20;1.40;;;;;;;;;;5027347;28;20182;-74
2022/07/15 13:57:37;;;;;;;2.38;0.95;;;;;;;;;;5025967;28;20207;-73
2022/07/15 14:00:07;;;;;;;3.80;1.40;;;;;;;;;;5031344;28;20198;-73
2022/07/15 14:02:33;;;;;;;3.78;1.33;;;;;;;;;;5003944;28;20179;-73
2022/07/15 14:04:58;;;;;;;4.97;1.10;;;;;;;;;;5015460;28;20179;-74
2022/07/15 14:07:23;;;;;;;2.55;1.45;;;;;;;;;;5035063;28;20216;-73
2022/07/15 14:09:48;;;;;;;3.47;1.20;;;;;;;;;;5033474;28;20183;-73
2022/07/15 14:12:14;;;;;;;2.33;1.50;;;;;;;;;;5045506;28;20888;-73
2022/07/15 14:14:39;;;;;;;2.37;1.33;;;;;;;;;;5036272;28;20656;-73
2022/07/15 14:17:04;;;;;;;2.17;1.50;;;;;;;;;;5045020;28;20402;-73
2022/07/15 14:19:29;;;;;;;5.87;1.20;;;;;;;;;;5043580;28;20411;-73
2022/07/15 14:21:54;;;;;;;1.80;1.20;;;;;;;;;;5038320;28;20786;-73
2022/07/15 14:24:20;;;;;;;3.20;1.40;;;;;;;;;;5029530;28;20447;-73
2022/07/15 14:26:45;;;;;;;3.42;1.30;;;;;;;;;;5029370;28;20210;-73
2022/07/15 14:29:10;;;;;;;4.80;1.37;;;;;;;;;;5032032;28;20277;-73
2022/07/15 14:31:36;;;;;;;3.08;1.40;;;;;;;;;;5032643;28;20407;-73
2022/07/15 14:34:01;;;;;;;5.47;1.60;;;;;;;;;;5047877;28;20170;-73
2022/07/15 14:36:26;;;;;;;3.38;1.33;;;;;;;;;;5040575;28;20182;-73
2022/07/15 14:38:52;;;;;;;4.43;1.90;;;;;;;;;;5046522;28;20709;-72
2022/07/15 14:41:17;;;;;;;4.00;1.95;;;;;;;;;;5038297;28;20424;-71
2022/07/15 14:43:42;;;;;;;5.73;1.47;;;;;;;;;;5039121;28;20189;-72
2022/07/15 14:46:07;;;;;;;5.37;1.50;;;;;;;;;;5040837;28;20443;-72
2022/07/15 14:48:33;;;;;;;2.57;1.20;;;;;;;;;;5032301;28;20525;-73
2022/07/15 14:50:58;;;;;;;4.63;1.35;;;;;;;;;;5037436;28;20411;-72
2022/07/15 14:53:23;;;;;;;2.97;1.57;;;;;;;;;;5024287;28;20611;-72